createdAt,value
2022-09-24T00:02:05.577Z,12.81
2022-09-24T00:04:33.513Z,12.83
2022-09-24T00:07:01.417Z,12.86
2022-09-24T00:09:29.301Z,12.80
2022-09-24T00:11:57.393Z,12.78
2022-09-24T00:14:26.758Z,12.78
2022-09-24T00:16:54.678Z,12.75
2022-09-24T00:19:22.598Z,12.80
2022-09-24T00:21:50.726Z,12.83
2022-09-24T00:24:33.072Z,12.87
2022-09-24T00:27:02.994Z,12.92
2022-09-24T00:29:35.788Z,12.91
2022-09-24T00:32:05.276Z,12.79
2022-09-24T00:34:33.514Z,12.81
2022-09-24T00:37:01.419Z,12.78
2022-09-24T00:39:29.327Z,12.78
2022-09-24T00:41:57.287Z,12.80
2022-09-24T00:44:51.862Z,12.79
2022-09-24T00:47:30.862Z,12.66
2022-09-24T00:50:06.246Z,12.72
2022-09-24T00:52:35.146Z,12.75
2022-09-24T00:55:03.138Z,12.70
2022-09-24T00:57:31.206Z,12.71
2022-09-24T01:00:00.870Z,12.80
2022-09-24T01:02:28.911Z,12.73
2022-09-24T01:04:57.127Z,12.72
2022-09-24T01:07:25.537Z,12.75
2022-09-24T01:09:53.830Z,12.74
2022-09-24T01:12:28.457Z,12.81
2022-09-24T01:15:08.082Z,12.80
2022-09-24T01:17:39.187Z,12.85
2022-09-24T01:20:45.444Z,12.86
2022-09-24T01:23:48.852Z,12.82
2022-09-24T01:26:30.221Z,12.94
2022-09-24T01:29:06.377Z,12.90
2022-09-24T01:31:41.125Z,12.80
2022-09-24T01:34:09.865Z,12.72
2022-09-24T01:36:39.837Z,12.73
2022-09-24T01:39:08.911Z,12.71
2022-09-24T01:41:38.526Z,12.72
2022-09-24T01:44:07.953Z,12.73
2022-09-24T01:46:39.219Z,12.73
2022-09-24T01:49:07.379Z,12.69
2022-09-24T01:51:39.431Z,12.64
2022-09-24T01:54:11.865Z,12.67
2022-09-24T01:56:42.654Z,12.70
2022-09-24T01:59:14.465Z,12.65
2022-09-24T02:01:48.716Z,12.64
2022-09-24T02:04:19.023Z,12.59
2022-09-24T02:06:51.476Z,12.55
2022-09-24T02:09:33.209Z,12.49
2022-09-24T02:12:10.349Z,12.37
2022-09-24T02:14:42.818Z,12.34
2022-09-24T02:17:12.778Z,12.34
2022-09-24T02:19:42.715Z,12.33
2022-09-24T02:22:12.316Z,12.38
2022-09-24T02:24:45.762Z,12.39
2022-09-24T02:27:13.940Z,12.52
2022-09-24T02:29:41.881Z,12.57
2022-09-24T02:32:14.670Z,12.63
2022-09-24T02:34:44.414Z,12.53
2022-09-24T02:37:14.110Z,12.53
2022-09-24T02:39:42.315Z,12.50
2022-09-24T02:42:12.057Z,12.48
2022-09-24T02:44:39.943Z,12.52
2022-09-24T02:47:08.579Z,12.30
2022-09-24T02:49:37.877Z,12.34
2022-09-24T02:52:05.808Z,12.45
2022-09-24T02:54:34.356Z,12.52
2022-09-24T02:57:02.329Z,12.53
2022-09-24T02:59:30.191Z,12.65
2022-09-24T03:01:58.433Z,12.69
2022-09-24T03:04:26.574Z,12.66
2022-09-24T03:06:55.835Z,12.60
2022-09-24T03:09:23.737Z,12.57
2022-09-24T03:11:51.946Z,12.43
2022-09-24T03:14:19.887Z,12.38
2022-09-24T03:16:47.777Z,12.43
2022-09-24T03:19:15.703Z,12.45
2022-09-24T03:21:43.594Z,12.47
2022-09-24T03:24:12.915Z,12.59
2022-09-24T03:26:41.483Z,12.35
2022-09-24T03:29:10.289Z,12.44
2022-09-24T03:31:37.226Z,12.47
2022-09-24T03:34:05.465Z,12.41
2022-09-24T03:36:33.513Z,12.46
2022-09-24T03:39:01.409Z,12.09
2022-09-24T03:41:30.670Z,12.00
2022-09-24T03:43:58.590Z,11.94
2022-09-24T03:46:28.608Z,11.88
2022-09-24T03:48:59.332Z,11.92
2022-09-24T03:51:27.441Z,11.93
2022-09-24T03:53:55.353Z,11.97
2022-09-24T03:56:23.282Z,11.91
2022-09-24T03:58:52.720Z,11.87
2022-09-24T04:01:21.765Z,11.90
2022-09-24T04:03:50.441Z,11.89
2022-09-24T04:06:24.886Z,11.96
2022-09-24T04:08:53.962Z,11.94
2022-09-24T04:11:22.000Z,12.02
2022-09-24T04:13:49.881Z,11.97
2022-09-24T04:16:19.362Z,11.91
2022-09-24T04:18:48.049Z,12.07
2022-09-24T04:21:16.092Z,12.02
2022-09-24T04:23:44.150Z,11.93
2022-09-24T04:26:12.549Z,12.13
2022-09-24T04:28:40.610Z,11.99
2022-09-24T04:31:08.578Z,11.93
2022-09-24T04:33:37.975Z,12.00
2022-09-24T04:36:05.866Z,11.95
2022-09-24T04:38:33.817Z,12.11
2022-09-24T04:41:06.629Z,12.05
2022-09-24T04:43:34.643Z,12.12
2022-09-24T04:46:03.506Z,12.33
2022-09-24T04:48:31.633Z,12.40
2022-09-24T04:51:02.196Z,12.34
2022-09-24T04:53:30.106Z,12.04
2022-09-24T04:55:58.099Z,11.98
2022-09-24T04:58:26.138Z,12.04
2022-09-24T05:00:54.375Z,11.95
2022-09-24T05:03:22.387Z,11.94
2022-09-24T05:05:51.189Z,11.96
2022-09-24T05:08:20.418Z,11.88
2022-09-24T05:10:48.361Z,11.87
2022-09-24T05:13:16.318Z,11.84
2022-09-24T05:15:44.419Z,11.87
2022-09-24T05:18:12.355Z,11.97
2022-09-24T05:20:40.245Z,11.87
2022-09-24T05:23:08.151Z,12.07
2022-09-24T05:25:58.257Z,12.08
2022-09-24T05:28:25.307Z,12.11
2022-09-24T05:30:58.062Z,12.05
2022-09-24T05:33:26.219Z,11.98
2022-09-24T05:35:55.300Z,11.87
2022-09-24T05:38:23.201Z,11.86
2022-09-24T05:40:52.538Z,11.85
2022-09-24T05:43:20.808Z,11.83
2022-09-24T05:45:50.591Z,11.86
2022-09-24T05:48:18.604Z,11.89
2022-09-24T05:50:46.495Z,12.01
2022-09-24T05:53:14.667Z,11.97
2022-09-24T05:55:44.168Z,12.01
2022-09-24T05:58:15.611Z,12.08
2022-09-24T06:00:43.782Z,12.11
2022-09-24T06:03:13.773Z,12.23
2022-09-24T06:05:46.184Z,12.17
2022-09-24T06:08:15.424Z,11.96
2022-09-24T06:10:44.133Z,12.11
2022-09-24T06:13:14.213Z,12.33
2022-09-24T06:15:42.606Z,12.38
2022-09-24T06:18:11.094Z,12.20
2022-09-24T06:20:40.235Z,12.19
2022-09-24T06:23:08.144Z,12.34
2022-09-24T06:25:36.071Z,12.43
2022-09-24T06:28:05.554Z,12.25
2022-09-24T06:30:38.373Z,12.33
2022-09-24T06:33:07.826Z,12.48
2022-09-24T06:35:36.518Z,12.26
2022-09-24T06:38:04.730Z,12.36
2022-09-24T06:40:36.656Z,12.34
2022-09-24T06:43:05.449Z,12.19
2022-09-24T06:45:33.427Z,12.33
2022-09-24T06:48:04.271Z,12.37
2022-09-24T06:50:34.390Z,12.30
2022-09-24T06:53:05.350Z,12.30
2022-09-24T06:55:33.831Z,12.34
2022-09-24T06:58:06.318Z,12.42
2022-09-24T07:00:34.394Z,12.30
2022-09-24T07:03:03.748Z,12.21
2022-09-24T07:05:31.728Z,12.30
2022-09-24T07:07:59.860Z,12.28
2022-09-24T07:10:28.119Z,12.26
2022-09-24T07:12:56.307Z,12.27
2022-09-24T07:15:24.286Z,12.29
2022-09-24T07:17:56.617Z,12.33
2022-09-24T07:20:28.242Z,12.37
2022-09-24T07:22:56.256Z,12.31
2022-09-24T07:25:24.337Z,12.35
2022-09-24T07:27:52.289Z,12.38
2022-09-24T07:30:20.245Z,12.39
2022-09-24T07:32:49.407Z,12.37
2022-09-24T07:35:18.956Z,12.52
2022-09-24T07:37:48.325Z,12.54
2022-09-24T07:40:16.289Z,12.59
2022-09-24T07:42:48.534Z,12.55
2022-09-24T07:45:17.307Z,12.57
2022-09-24T07:47:45.259Z,12.63
2022-09-24T07:50:13.755Z,12.73
2022-09-24T07:52:41.682Z,12.70
2022-09-24T07:55:11.105Z,12.63
2022-09-24T07:57:39.503Z,12.69
2022-09-24T08:00:09.036Z,12.61
2022-09-24T08:02:36.951Z,12.58
2022-09-24T08:05:05.918Z,12.66
2022-09-24T08:07:33.855Z,12.88
2022-09-24T08:10:01.874Z,12.76
2022-09-24T08:12:31.221Z,12.89
2022-09-24T08:14:59.105Z,12.82
2022-09-24T08:17:27.851Z,12.92
2022-09-24T08:19:56.979Z,13.01
2022-09-24T08:22:25.133Z,12.90
2022-09-24T08:24:53.124Z,12.81
2022-09-24T08:27:21.357Z,12.87
2022-09-24T08:29:50.671Z,12.91
2022-09-24T08:32:19.026Z,12.85
2022-09-24T08:34:46.922Z,12.88
2022-09-24T08:37:14.964Z,12.89
2022-09-24T08:39:42.859Z,12.96
2022-09-24T08:42:16.848Z,12.93
2022-09-24T08:45:04.221Z,12.98
2022-09-24T08:47:39.488Z,13.08
2022-09-24T08:50:12.643Z,13.32
2022-09-24T08:52:58.217Z,13.46
2022-09-24T08:55:32.939Z,13.52
2022-09-24T08:58:09.714Z,13.62
2022-09-24T09:00:43.425Z,13.36
2022-09-24T09:03:18.074Z,13.29
2022-09-24T09:05:53.903Z,13.41
2022-09-24T09:08:54.642Z,13.38
2022-09-24T09:11:23.260Z,13.38
2022-09-24T09:13:54.299Z,13.27
2022-09-24T09:16:25.284Z,13.46
2022-09-24T09:18:57.230Z,13.43
2022-09-24T09:21:30.046Z,13.52
2022-09-24T09:23:59.193Z,13.60
2022-09-24T09:26:27.318Z,13.72
2022-09-24T09:28:59.398Z,13.67
2022-09-24T09:31:35.530Z,13.71
2022-09-24T09:34:17.706Z,13.77
2022-09-24T09:36:55.098Z,13.74
2022-09-24T09:39:32.221Z,13.62
2022-09-24T09:42:08.030Z,13.63
2022-09-24T09:44:41.469Z,13.60
2022-09-24T09:47:18.633Z,13.54
2022-09-24T09:49:48.890Z,13.49
2022-09-24T09:52:21.283Z,13.40
2022-09-24T09:54:49.730Z,13.25
2022-09-24T09:57:20.614Z,13.11
2022-09-24T09:59:50.000Z,13.28
2022-09-24T10:02:25.392Z,13.23
2022-09-24T10:04:56.842Z,13.35
2022-09-24T10:07:25.279Z,13.35
2022-09-24T10:10:02.121Z,13.31
2022-09-24T10:12:30.887Z,13.23
2022-09-24T10:15:01.124Z,13.20
2022-09-24T10:17:37.803Z,13.31
2022-09-24T10:20:11.359Z,13.28
2022-09-24T10:22:50.155Z,13.31
2022-09-24T10:25:19.637Z,13.29
2022-09-24T10:27:48.007Z,13.32
2022-09-24T10:30:35.348Z,13.33
2022-09-24T10:33:05.034Z,13.34
2022-09-24T10:35:38.560Z,13.32
2022-09-24T10:38:17.793Z,13.13
2022-09-24T10:40:45.849Z,13.23
2022-09-24T10:43:18.400Z,13.25
2022-09-24T10:46:17.417Z,13.41
2022-09-24T10:48:46.643Z,13.45
2022-09-24T10:51:28.804Z,13.34
2022-09-24T10:54:07.463Z,13.31
2022-09-24T10:56:42.290Z,13.40
2022-09-24T10:59:39.470Z,13.28
2022-09-24T11:02:23.127Z,13.55
2022-09-24T11:04:52.807Z,13.76
2022-09-24T11:07:40.118Z,13.64
2022-09-24T11:10:17.579Z,13.88
2022-09-24T11:12:54.039Z,14.12
2022-09-24T11:15:32.903Z,13.89
2022-09-24T11:18:16.854Z,13.76
2022-09-24T11:20:50.389Z,13.91
2022-09-24T11:23:41.598Z,13.96
2022-09-24T11:26:19.747Z,13.81
2022-09-24T11:29:07.111Z,13.79
2022-09-24T11:31:40.604Z,13.70
2022-09-24T11:34:37.820Z,13.72
2022-09-24T11:37:15.314Z,13.92
2022-09-24T11:39:55.998Z,14.03
2022-09-24T11:42:26.230Z,14.05
2022-09-24T11:45:06.930Z,14.11
2022-09-24T11:47:48.850Z,14.12
2022-09-24T11:50:24.653Z,14.01
2022-09-24T11:52:55.648Z,14.07
2022-09-24T11:55:31.797Z,14.23
2022-09-24T11:58:06.423Z,14.09
2022-09-24T12:00:37.953Z,13.87
2022-09-24T12:03:10.891Z,14.09
2022-09-24T12:05:41.684Z,13.99
2022-09-24T12:08:12.826Z,14.12
2022-09-24T12:10:46.126Z,14.00
2022-09-24T12:13:18.642Z,14.11
2022-09-24T12:15:53.758Z,14.18
2022-09-24T12:18:25.102Z,14.24
2022-09-24T12:20:56.323Z,14.39
2022-09-24T12:23:28.240Z,14.35
2022-09-24T12:25:59.584Z,14.07
2022-09-24T12:28:50.486Z,14.16
2022-09-24T12:31:39.305Z,14.22
2022-09-24T12:34:11.620Z,14.17
2022-09-24T12:36:57.108Z,14.12
2022-09-24T12:39:28.718Z,13.95
2022-09-24T12:42:01.028Z,13.95
2022-09-24T12:44:40.879Z,13.93
2022-09-24T12:47:17.023Z,14.18
2022-09-24T12:49:49.938Z,14.32
2022-09-24T12:52:20.173Z,14.40
2022-09-24T12:54:55.950Z,14.46
2022-09-24T12:57:27.410Z,14.44
2022-09-24T12:59:56.834Z,14.48
2022-09-24T13:02:26.453Z,14.41
2022-09-24T13:05:20.022Z,14.53
2022-09-24T13:07:58.495Z,14.73
2022-09-24T13:10:28.879Z,14.48
2022-09-24T13:13:00.116Z,14.51
2022-09-24T13:15:38.798Z,14.27
2022-09-24T13:18:19.816Z,14.47
2022-09-24T13:20:59.984Z,14.32
2022-09-24T13:23:35.318Z,14.29
2022-09-24T13:26:05.023Z,14.47
2022-09-24T13:28:43.706Z,14.37
2022-09-24T13:31:20.555Z,14.50
2022-09-24T13:33:50.912Z,14.29
2022-09-24T13:36:21.133Z,14.35
2022-09-24T13:38:54.618Z,14.20
2022-09-24T13:41:28.847Z,14.05
2022-09-24T13:44:01.698Z,14.12
2022-09-24T13:46:31.446Z,14.26
2022-09-24T13:49:03.682Z,14.31
2022-09-24T13:51:34.323Z,14.25
2022-09-24T13:54:07.080Z,14.41
2022-09-24T13:56:35.207Z,14.43
2022-09-24T13:59:11.787Z,14.45
2022-09-24T14:01:41.834Z,14.46
2022-09-24T14:04:17.436Z,14.50
2022-09-24T14:06:48.218Z,14.61
2022-09-24T14:09:17.767Z,14.77
2022-09-24T14:11:53.207Z,14.77
2022-09-24T14:14:24.661Z,14.76
2022-09-24T14:16:54.979Z,14.76
2022-09-24T14:19:23.958Z,14.61
2022-09-24T14:21:54.440Z,14.61
2022-09-24T14:24:25.354Z,14.74
2022-09-24T14:26:55.742Z,14.83
2022-09-24T14:29:27.587Z,14.92
2022-09-24T14:31:57.278Z,14.94
2022-09-24T14:34:28.033Z,14.99
2022-09-24T14:36:57.513Z,15.03
2022-09-24T14:39:27.688Z,15.12
2022-09-24T14:41:56.194Z,14.72
2022-09-24T14:44:27.552Z,14.88
2022-09-24T14:46:58.215Z,14.83
2022-09-24T14:49:28.931Z,14.88
2022-09-24T14:51:59.044Z,15.17
2022-09-24T14:54:33.207Z,15.01
2022-09-24T14:57:22.292Z,14.99
2022-09-24T14:59:51.695Z,14.92
2022-09-24T15:02:21.755Z,14.93
2022-09-24T15:04:51.757Z,14.77
2022-09-24T15:07:22.563Z,14.62
2022-09-24T15:09:52.467Z,14.63
2022-09-24T15:12:22.772Z,14.65
2022-09-24T15:14:59.391Z,14.93
2022-09-24T15:17:31.539Z,14.88
2022-09-24T15:19:59.519Z,15.01
2022-09-24T15:22:28.098Z,15.10
2022-09-24T15:25:01.196Z,15.07
2022-09-24T15:27:32.184Z,14.91
2022-09-24T15:30:04.767Z,14.91
2022-09-24T15:32:35.095Z,14.98
2022-09-24T15:35:08.287Z,15.18
2022-09-24T15:37:39.245Z,15.33
2022-09-24T15:40:10.252Z,15.37
2022-09-24T15:42:38.324Z,15.41
2022-09-24T15:45:15.257Z,15.24
2022-09-24T15:47:43.151Z,15.16
2022-09-24T15:50:12.127Z,15.06
2022-09-24T15:52:45.334Z,15.14
2022-09-24T15:55:18.589Z,15.16
2022-09-24T15:57:47.046Z,15.19
2022-09-24T16:00:18.993Z,15.11
2022-09-24T16:02:50.040Z,14.76
2022-09-24T16:05:18.620Z,14.63
2022-09-24T16:07:46.776Z,14.50
2022-09-24T16:10:16.108Z,14.38
2022-09-24T16:12:44.240Z,14.42
2022-09-24T16:15:13.992Z,14.63
2022-09-24T16:17:43.476Z,14.72
2022-09-24T16:20:11.559Z,14.83
2022-09-24T16:22:39.501Z,14.85
2022-09-24T16:25:08.367Z,14.85
2022-09-24T16:27:36.348Z,14.76
2022-09-24T16:30:05.501Z,14.71
2022-09-24T16:32:33.388Z,14.76
2022-09-24T16:35:02.733Z,14.78
2022-09-24T16:37:30.656Z,14.72
2022-09-24T16:39:58.610Z,14.66
2022-09-24T16:42:26.694Z,14.54
2022-09-24T16:44:54.626Z,14.62
2022-09-24T16:47:22.561Z,14.87
2022-09-24T16:49:50.479Z,14.73
2022-09-24T16:52:19.970Z,14.72
2022-09-24T16:54:47.854Z,14.74
2022-09-24T16:57:15.766Z,14.69
2022-09-24T16:59:43.678Z,14.69
2022-09-24T17:02:12.216Z,14.67
2022-09-24T17:04:40.501Z,14.68
2022-09-24T17:07:10.285Z,14.69
2022-09-24T17:09:56.927Z,14.67
2022-09-24T17:12:24.858Z,14.70
2022-09-24T17:14:53.103Z,14.72
2022-09-24T17:17:21.019Z,14.63
2022-09-24T17:19:48.926Z,14.62
2022-09-24T17:22:16.837Z,14.66
2022-09-24T17:24:46.126Z,14.66
2022-09-24T17:27:14.027Z,14.67
2022-09-24T17:29:43.019Z,14.68
2022-09-24T17:32:11.133Z,14.64
2022-09-24T17:34:43.432Z,14.55
2022-09-24T17:37:13.510Z,14.52
2022-09-24T17:39:42.025Z,14.46
2022-09-24T17:42:11.510Z,14.47
2022-09-24T17:44:39.393Z,14.42
2022-09-24T17:47:07.992Z,14.40
2022-09-24T17:49:36.013Z,14.40
2022-09-24T17:52:04.545Z,14.42
2022-09-24T17:54:32.530Z,14.41
2022-09-24T17:57:01.229Z,14.40
2022-09-24T17:59:30.807Z,14.37
2022-09-24T18:01:58.782Z,14.36
2022-09-24T18:04:28.441Z,14.36
2022-09-24T18:06:56.315Z,14.27
2022-09-24T18:09:24.217Z,14.26
2022-09-24T18:11:53.290Z,14.22
2022-09-24T18:14:23.186Z,14.20
2022-09-24T18:16:52.683Z,14.19
2022-09-24T18:19:20.712Z,14.16
2022-09-24T18:21:49.792Z,14.12
2022-09-24T18:24:17.845Z,14.13
2022-09-24T18:26:51.341Z,14.12
2022-09-24T18:29:20.286Z,14.12
2022-09-24T18:31:48.270Z,14.10
2022-09-24T18:34:17.700Z,14.11
2022-09-24T18:36:46.544Z,14.10
2022-09-24T18:39:21.897Z,14.06
2022-09-24T18:41:51.987Z,14.08
2022-09-24T18:44:20.641Z,14.09
2022-09-24T18:46:49.894Z,14.02
2022-09-24T18:49:20.359Z,14.01
2022-09-24T18:51:49.305Z,14.02
2022-09-24T18:54:18.327Z,14.03
2022-09-24T18:56:46.997Z,14.01
2022-09-24T18:59:17.190Z,14.02
2022-09-24T19:01:46.973Z,13.97
2022-09-24T19:04:15.414Z,13.96
2022-09-24T19:06:46.210Z,13.93
2022-09-24T19:09:17.223Z,13.92
2022-09-24T19:11:45.762Z,13.96
2022-09-24T19:14:15.041Z,13.94
2022-09-24T19:16:42.949Z,13.92
2022-09-24T19:19:11.269Z,13.88
2022-09-24T19:21:39.422Z,13.82
2022-09-24T19:24:09.835Z,13.80
2022-09-24T19:26:38.252Z,13.80
2022-09-24T19:29:06.614Z,13.83
2022-09-24T19:31:37.044Z,13.82
2022-09-24T19:34:06.981Z,13.80
2022-09-24T19:36:43.811Z,13.79
2022-09-24T19:39:15.638Z,13.76
2022-09-24T19:41:43.870Z,13.74
2022-09-24T19:44:12.096Z,13.71
2022-09-24T19:46:40.974Z,13.71
2022-09-24T19:49:09.118Z,13.78
2022-09-24T19:51:37.451Z,13.77
2022-09-24T19:54:07.514Z,13.72
2022-09-24T19:56:38.159Z,13.74
2022-09-24T19:59:08.023Z,13.77
2022-09-24T20:01:36.176Z,13.78
2022-09-24T20:04:06.232Z,13.76
2022-09-24T20:06:38.585Z,13.75
2022-09-24T20:09:06.564Z,13.73
2022-09-24T20:11:34.668Z,13.65
2022-09-24T20:14:06.013Z,13.68
2022-09-24T20:16:34.171Z,13.64
2022-09-24T20:19:03.148Z,13.63
2022-09-24T20:21:34.992Z,13.63
2022-09-24T20:24:04.169Z,13.63
2022-09-24T20:26:50.286Z,13.59
2022-09-24T20:29:21.603Z,13.57
2022-09-24T20:31:52.706Z,13.57
2022-09-24T20:34:22.224Z,13.58
2022-09-24T20:36:50.819Z,13.63
2022-09-24T20:39:19.189Z,13.57
2022-09-24T20:41:47.323Z,13.51
2022-09-24T20:44:15.222Z,13.49
2022-09-24T20:46:44.527Z,13.53
2022-09-24T20:49:22.449Z,13.53
2022-09-24T20:51:56.268Z,13.50
2022-09-24T20:54:25.156Z,13.50
2022-09-24T20:56:53.050Z,13.46
2022-09-24T20:59:21.208Z,13.46
2022-09-24T21:01:50.866Z,13.44
2022-09-24T21:04:20.230Z,13.41
2022-09-24T21:06:48.391Z,13.41
2022-09-24T21:09:16.986Z,13.38
2022-09-24T21:11:45.011Z,13.37
2022-09-24T21:14:14.886Z,13.34
2022-09-24T21:16:42.809Z,13.34
2022-09-24T21:19:12.902Z,13.37
2022-09-24T21:21:40.827Z,13.34
2022-09-24T21:24:11.720Z,13.32
2022-09-24T21:26:40.724Z,13.35
2022-09-24T21:29:11.232Z,13.30
2022-09-24T21:31:42.030Z,13.26
2022-09-24T21:34:13.099Z,13.29
2022-09-24T21:36:44.546Z,13.34
2022-09-24T21:39:15.344Z,13.33
2022-09-24T21:41:43.662Z,13.30
2022-09-24T21:44:14.165Z,13.27
2022-09-24T21:46:43.904Z,13.30
2022-09-24T21:49:13.535Z,13.26
2022-09-24T21:51:42.032Z,13.24
2022-09-24T21:54:14.109Z,13.28
2022-09-24T21:56:42.234Z,13.25
2022-09-24T21:59:24.193Z,13.25
2022-09-24T22:01:52.456Z,13.24
2022-09-24T22:04:22.029Z,13.27
2022-09-24T22:06:51.114Z,13.28
2022-09-24T22:09:19.534Z,13.28
2022-09-24T22:11:47.761Z,13.32
2022-09-24T22:14:15.763Z,13.24
2022-09-24T22:16:43.855Z,13.19
2022-09-24T22:19:11.815Z,13.18
2022-09-24T22:21:41.635Z,13.24
2022-09-24T22:24:09.684Z,13.24
2022-09-24T22:26:37.844Z,13.20
2022-09-24T22:29:06.022Z,13.23
2022-09-24T22:31:34.554Z,13.21
2022-09-24T22:34:19.963Z,13.17
2022-09-24T22:36:49.246Z,13.18
2022-09-24T22:39:17.249Z,13.28
2022-09-24T22:41:45.133Z,13.33
2022-09-24T22:44:13.376Z,13.30
2022-09-24T22:46:41.966Z,13.38
2022-09-24T22:49:11.052Z,13.30
2022-09-24T22:51:39.611Z,13.22
2022-09-24T22:54:09.826Z,13.11
2022-09-24T22:56:37.834Z,13.07
2022-09-24T22:59:06.317Z,13.08
2022-09-24T23:01:36.115Z,13.12
2022-09-24T23:04:04.353Z,13.13
2022-09-24T23:06:33.933Z,13.08
2022-09-24T23:09:02.462Z,12.92
2022-09-24T23:11:33.421Z,12.95
2022-09-24T23:14:03.290Z,13.07
2022-09-24T23:16:32.914Z,13.13
2022-09-24T23:19:02.977Z,13.15
2022-09-24T23:21:32.569Z,13.11
2022-09-24T23:24:02.085Z,13.10
2022-09-24T23:26:31.680Z,13.10
2022-09-24T23:29:00.885Z,13.15
2022-09-24T23:31:30.376Z,13.22
2022-09-24T23:33:59.519Z,13.25
2022-09-24T23:36:28.170Z,13.27
2022-09-24T23:38:56.133Z,13.22
2022-09-24T23:41:24.089Z,13.18
2022-09-24T23:43:53.466Z,13.20
2022-09-24T23:46:21.532Z,13.20
2022-09-24T23:48:49.681Z,13.22
2022-09-24T23:51:17.582Z,13.21
2022-09-24T23:53:45.469Z,13.23
2022-09-24T23:56:13.815Z,13.30
2022-09-24T23:58:42.294Z,13.30
